Time;durP1;ratioP1;P1;durP2;ratioP2;P2;SDS_P1;SDS_P2;PMS_P1;PMS_P2;Temp;Humidity;BMP_temperature;BMP_pressure;BME280_temperature;BME280_humidity;BME280_pressure;Samples;Min_cycle;Max_cycle;Signal;HPM_P1;HPM_P2
2020/12/06 00:02:03;;;;;;;1.58;1.45;;;11.50;78.00;;;;;;5104875;28;20080;-47
2020/12/06 00:04:29;;;;;;;1.40;1.30;;;11.50;78.00;;;;;;5104649;28;20039;-47
2020/12/06 00:06:56;;;;;;;2.70;1.75;;;11.50;78.00;;;;;;5097635;28;20735;-47
2020/12/06 00:09:22;;;;;;;1.52;1.30;;;11.40;78.00;;;;;;5084289;28;20043;-47
2020/12/06 00:11:49;;;;;;;3.28;1.40;;;11.40;77.90;;;;;;5084468;28;20034;-47
2020/12/06 00:14:15;;;;;;;1.40;1.30;;;11.40;78.00;;;;;;5086733;28;20025;-47
2020/12/06 00:16:41;;;;;;;1.55;1.45;;;11.40;77.90;;;;;;5122437;28;20083;-48
2020/12/06 00:19:07;;;;;;;2.75;1.80;;;11.40;78.00;;;;;;5131193;27;20070;-54
2020/12/06 00:21:34;;;;;;;1.50;1.30;;;11.40;77.90;;;;;;5145614;27;20045;-47
2020/12/06 00:24:04;;;;;;;1.55;1.25;;;11.30;77.90;;;;;;5143043;27;20079;-48
2020/12/06 00:26:30;;;;;;;1.55;1.45;;;11.30;77.90;;;;;;5124737;28;20034;-48
2020/12/06 00:28:56;;;;;;;2.10;1.38;;;11.30;77.90;;;;;;5124771;28;20031;-47
2020/12/06 00:31:23;;;;;;;1.75;1.40;;;11.30;77.90;;;;;;5124402;28;20028;-47
2020/12/06 00:33:49;;;;;;;1.67;1.50;;;11.30;78.00;;;;;;5124566;28;20028;-46
2020/12/06 00:36:15;;;;;;;1.60;1.50;;;11.30;77.80;;;;;;5124487;28;20027;-47
2020/12/06 00:38:42;;;;;;;1.80;1.50;;;11.30;77.90;;;;;;5124601;28;20275;-48
2020/12/06 00:41:12;;;;;;;1.67;1.38;;;11.30;77.90;;;;;;5124273;28;20032;-48
2020/12/06 00:43:39;;;;;;;1.85;1.50;;;11.30;77.90;;;;;;5119999;27;20103;-47
2020/12/06 00:46:05;;;;;;;1.40;1.30;;;11.30;77.80;;;;;;5112950;28;20027;-47
2020/12/06 00:48:31;;;;;;;2.05;1.70;;;11.30;77.80;;;;;;5103922;28;20555;-48
2020/12/06 00:50:57;;;;;;;1.98;1.50;;;11.20;77.80;;;;;;5142897;27;20030;-47
2020/12/06 00:53:24;;;;;;;2.97;1.80;;;11.20;77.80;;;;;;5144120;27;20080;-48
2020/12/06 00:55:50;;;;;;;1.60;1.50;;;11.20;77.70;;;;;;5126433;27;20019;-49
2020/12/06 00:58:16;;;;;;;1.75;1.52;;;11.20;77.70;;;;;;5124039;28;20028;-48
2020/12/06 01:00:43;;;;;;;2.25;1.45;;;11.20;77.70;;;;;;5137683;27;20280;-49
2020/12/06 01:03:09;;;;;;;1.40;1.30;;;11.20;77.80;;;;;;5144895;27;20031;-47
2020/12/06 01:05:35;;;;;;;1.60;1.48;;;11.20;77.70;;;;;;5144437;27;20690;-48
2020/12/06 01:08:01;;;;;;;2.20;1.60;;;11.10;77.70;;;;;;5128055;27;20047;-48
2020/12/06 01:10:28;;;;;;;1.88;1.55;;;11.10;77.70;;;;;;5088119;28;20024;-49
2020/12/06 01:12:54;;;;;;;3.78;1.58;;;11.10;77.70;;;;;;5123702;28;20031;-48
2020/12/06 01:15:20;;;;;;;2.22;1.63;;;11.10;77.70;;;;;;5123687;28;20074;-47
2020/12/06 01:17:46;;;;;;;1.63;1.52;;;11.10;77.70;;;;;;5123732;28;20135;-47
2020/12/06 01:20:13;;;;;;;1.65;1.52;;;11.10;77.70;;;;;;5123246;28;20035;-47
2020/12/06 01:22:40;;;;;;;2.40;1.92;;;11.10;77.80;;;;;;5123915;28;20019;-47
2020/12/06 01:25:06;;;;;;;2.40;1.88;;;11.10;77.80;;;;;;5123668;28;20038;-48
2020/12/06 01:27:32;;;;;;;2.05;1.60;;;11.10;77.80;;;;;;5123637;28;20030;-48
2020/12/06 01:29:59;;;;;;;2.60;1.73;;;11.00;77.70;;;;;;5123296;28;20559;-47
2020/12/06 01:32:25;;;;;;;3.15;1.80;;;11.00;77.80;;;;;;5123419;28;20024;-50
2020/12/06 01:34:51;;;;;;;3.25;1.75;;;11.00;77.70;;;;;;5123374;28;20028;-47
2020/12/06 01:37:17;;;;;;;2.25;1.85;;;11.10;77.80;;;;;;5112981;28;20035;-48
2020/12/06 01:39:43;;;;;;;1.98;1.70;;;11.00;77.70;;;;;;5103138;28;20036;-47
2020/12/06 01:42:10;;;;;;;2.38;1.60;;;11.00;77.70;;;;;;5107801;28;20087;-47
2020/12/06 01:44:36;;;;;;;1.77;1.55;;;11.00;77.80;;;;;;5123260;28;20028;-48
2020/12/06 01:47:03;;;;;;;2.28;1.70;;;11.00;77.70;;;;;;5105039;28;20028;-48
2020/12/06 01:49:38;;;;;;;2.33;1.70;;;11.00;77.70;;;;;;5123149;28;20027;-48
2020/12/06 01:52:07;;;;;;;2.45;1.98;;;11.00;77.70;;;;;;5089199;28;20028;-47
2020/12/06 01:54:34;;;;;;;2.22;1.75;;;11.00;77.70;;;;;;5123240;28;20031;-49
2020/12/06 01:57:01;;;;;;;3.00;1.92;;;11.00;77.80;;;;;;5123108;28;20016;-48
2020/12/06 01:59:28;;;;;;;1.75;1.65;;;10.90;77.60;;;;;;5123112;28;20396;-48
2020/12/06 02:01:59;;;;;;;1.87;1.67;;;10.90;77.70;;;;;;5122919;28;20030;-47
2020/12/06 02:04:26;;;;;;;2.75;1.88;;;10.90;77.70;;;;;;5122939;28;20020;-49
2020/12/06 02:06:53;;;;;;;2.45;1.67;;;10.90;77.70;;;;;;5122527;28;20024;-47
2020/12/06 02:09:19;;;;;;;2.47;1.90;;;10.90;77.70;;;;;;5104785;28;20036;-48
2020/12/06 02:11:45;;;;;;;2.30;1.67;;;10.90;77.70;;;;;;5121456;28;20019;-48
2020/12/06 02:14:12;;;;;;;2.28;1.95;;;10.90;77.70;;;;;;5122960;28;20020;-48
2020/12/06 02:16:38;;;;;;;2.20;1.85;;;10.90;77.70;;;;;;5105199;28;20049;-47
2020/12/06 02:19:06;;;;;;;2.08;1.88;;;10.90;77.60;;;;;;5102423;28;20063;-49
2020/12/06 02:21:40;;;;;;;2.35;1.80;;;10.80;77.60;;;;;;5083703;28;20080;-48
2020/12/06 02:24:07;;;;;;;1.85;1.70;;;10.80;77.60;;;;;;5102555;28;20046;-48
2020/12/06 02:26:43;;;;;;;2.70;2.13;;;10.80;77.70;;;;;;5102525;28;20106;-47
2020/12/06 02:29:10;;;;;;;2.05;1.83;;;10.80;77.70;;;;;;5102563;28;20036;-48
2020/12/06 02:31:36;;;;;;;2.33;2.03;;;10.80;77.70;;;;;;5102111;28;20024;-48
2020/12/06 02:34:06;;;;;;;2.20;2.00;;;10.80;77.70;;;;;;5102309;28;20209;-47
2020/12/06 02:36:32;;;;;;;2.75;1.80;;;10.80;77.60;;;;;;5102305;28;20209;-48
2020/12/06 02:38:59;;;;;;;2.17;1.80;;;10.80;77.80;;;;;;5102226;28;20835;-48
2020/12/06 02:41:38;;;;;;;2.17;1.90;;;10.70;77.60;;;;;;5102126;28;20034;-47
2020/12/06 02:44:05;;;;;;;2.45;1.92;;;10.70;77.70;;;;;;5102181;28;20104;-47
2020/12/06 02:46:31;;;;;;;1.67;1.37;;;10.70;77.70;;;;;;5102334;28;20028;-48
2020/12/06 02:48:57;;;;;;;3.05;2.20;;;10.70;77.70;;;;;;5083981;28;20076;-47
2020/12/06 02:51:24;;;;;;;2.75;2.15;;;10.70;77.70;;;;;;5101703;28;20020;-48
2020/12/06 02:53:50;;;;;;;2.10;1.90;;;10.70;77.70;;;;;;5083753;28;20107;-47
2020/12/06 02:56:16;;;;;;;3.20;1.98;;;10.70;77.70;;;;;;5101989;28;20035;-48
2020/12/06 02:58:42;;;;;;;3.05;1.80;;;10.60;77.70;;;;;;5101967;28;20035;-48
2020/12/06 03:01:09;;;;;;;2.38;2.00;;;10.70;77.70;;;;;;5101951;28;20031;-48
2020/12/06 03:03:35;;;;;;;2.55;2.10;;;10.60;77.70;;;;;;5101971;28;20023;-48
2020/12/06 03:06:01;;;;;;;2.97;2.10;;;10.60;77.60;;;;;;5102174;28;20036;-48
2020/12/06 03:08:29;;;;;;;2.30;1.92;;;10.60;77.70;;;;;;5101926;28;20032;-48
2020/12/06 03:10:55;;;;;;;2.58;1.90;;;10.60;77.70;;;;;;5101935;28;20028;-47
2020/12/06 03:13:21;;;;;;;2.20;2.00;;;10.60;77.70;;;;;;5101623;28;20043;-48
2020/12/06 03:15:47;;;;;;;3.97;2.25;;;10.60;77.70;;;;;;5112232;28;20101;-47
2020/12/06 03:18:13;;;;;;;3.47;2.40;;;10.60;77.70;;;;;;5125022;28;20699;-48
2020/12/06 03:20:40;;;;;;;2.47;1.90;;;10.60;77.70;;;;;;5143208;27;20031;-47
2020/12/06 03:23:06;;;;;;;2.55;2.17;;;10.50;77.70;;;;;;5146308;27;20019;-47
2020/12/06 03:25:32;;;;;;;2.45;2.08;;;10.50;77.70;;;;;;5130770;27;20073;-48
2020/12/06 03:27:58;;;;;;;2.33;1.95;;;10.50;77.70;;;;;;5125937;28;20031;-48
2020/12/06 03:30:24;;;;;;;2.17;1.98;;;10.50;77.70;;;;;;5125691;28;20039;-49
2020/12/06 03:32:51;;;;;;;3.90;2.13;;;10.50;77.70;;;;;;5125689;28;20026;-47
2020/12/06 03:35:17;;;;;;;2.38;2.17;;;10.50;77.70;;;;;;5125765;28;20026;-50
2020/12/06 03:37:43;;;;;;;3.33;2.15;;;10.50;77.80;;;;;;5125561;28;20036;-47
2020/12/06 03:40:09;;;;;;;3.20;2.10;;;10.50;77.80;;;;;;5122557;28;20038;-46
2020/12/06 03:42:35;;;;;;;2.05;1.75;;;10.40;77.70;;;;;;5113745;28;20084;-47
2020/12/06 03:45:02;;;;;;;2.90;2.28;;;10.40;77.70;;;;;;5105149;28;20035;-47
2020/12/06 03:47:28;;;;;;;2.65;2.00;;;10.40;77.80;;;;;;5105018;28;20050;-48
2020/12/06 03:49:54;;;;;;;3.72;2.17;;;10.40;77.70;;;;;;5104883;28;20028;-47
2020/12/06 03:52:20;;;;;;;3.63;2.20;;;10.40;77.70;;;;;;5104701;28;20020;-47
2020/12/06 03:54:46;;;;;;;2.45;2.25;;;10.40;77.70;;;;;;5114246;28;20053;-48
2020/12/06 03:57:13;;;;;;;2.35;2.10;;;10.40;77.80;;;;;;5125193;28;20020;-48
2020/12/06 03:59:39;;;;;;;2.35;2.10;;;10.40;77.70;;;;;;5125370;28;20059;-48
2020/12/06 04:02:05;;;;;;;3.17;2.10;;;10.40;77.80;;;;;;5125126;28;20105;-48
2020/12/06 04:04:31;;;;;;;2.95;2.30;;;10.30;77.70;;;;;;5125270;28;20030;-48
2020/12/06 04:06:57;;;;;;;2.65;2.17;;;10.30;77.70;;;;;;5132326;27;20045;-47
2020/12/06 04:09:23;;;;;;;2.00;1.88;;;10.30;77.70;;;;;;5145653;27;20098;-47
2020/12/06 04:11:50;;;;;;;3.28;2.47;;;10.30;77.80;;;;;;5133738;27;20023;-47
2020/12/06 04:14:16;;;;;;;2.45;2.00;;;10.30;77.80;;;;;;5124870;28;20023;-48
2020/12/06 04:16:42;;;;;;;3.75;2.10;;;10.30;77.80;;;;;;5124697;28;20035;-47
2020/12/06 04:19:08;;;;;;;2.30;2.10;;;10.30;77.80;;;;;;5127770;27;20036;-48
2020/12/06 04:21:34;;;;;;;3.22;2.30;;;10.20;77.70;;;;;;5125783;27;20644;-47
2020/12/06 04:24:00;;;;;;;2.25;2.05;;;10.30;77.80;;;;;;5127153;27;20033;-49
2020/12/06 04:26:27;;;;;;;3.00;2.30;;;10.30;77.90;;;;;;5145524;27;20027;-47
2020/12/06 04:28:53;;;;;;;3.05;2.30;;;10.20;77.80;;;;;;5145423;27;20030;-47
2020/12/06 04:31:19;;;;;;;2.97;2.45;;;10.20;77.80;;;;;;5145114;27;20035;-47
2020/12/06 04:33:45;;;;;;;3.38;2.30;;;10.20;77.80;;;;;;5145001;27;20061;-48
2020/12/06 04:36:11;;;;;;;3.35;2.17;;;10.20;77.90;;;;;;5138282;27;20034;-48
2020/12/06 04:38:37;;;;;;;2.60;2.15;;;10.20;78.00;;;;;;5124353;28;20024;-48
2020/12/06 04:41:04;;;;;;;3.17;2.22;;;10.20;77.90;;;;;;5124224;28;20032;-47
2020/12/06 04:43:30;;;;;;;3.17;2.22;;;10.20;77.90;;;;;;5123997;28;20027;-48
2020/12/06 04:45:56;;;;;;;2.53;2.30;;;10.10;77.80;;;;;;5098519;27;20038;-48
2020/12/06 04:48:56;;;;;;;3.03;2.58;;;10.10;77.80;;;;;;5126432;27;20034;-47
2020/12/06 04:51:27;;;;;;;2.65;2.30;;;10.10;78.60;;;;;;5144842;27;20031;-48
2020/12/06 04:54:11;;;;;;;2.53;1.88;;;10.10;77.80;;;;;;5143031;27;20034;-48
2020/12/06 04:56:38;;;;;;;3.60;2.40;;;10.10;77.90;;;;;;5105837;28;20031;-48
2020/12/06 04:59:05;;;;;;;2.58;2.38;;;10.10;77.90;;;;;;5123986;28;20031;-47
2020/12/06 05:01:38;;;;;;;3.38;2.40;;;10.10;77.90;;;;;;5105671;28;20054;-48
2020/12/06 05:04:10;;;;;;;2.38;2.17;;;10.10;77.90;;;;;;5123660;28;20057;-48
2020/12/06 05:06:38;;;;;;;2.83;2.40;;;10.00;77.80;;;;;;5125946;27;20054;-48
2020/12/06 05:09:07;;;;;;;4.20;2.90;;;10.00;77.90;;;;;;5127082;27;20115;-48
2020/12/06 05:11:34;;;;;;;2.45;2.17;;;10.00;77.90;;;;;;5104075;27;20023;-48
2020/12/06 05:14:00;;;;;;;4.43;2.33;;;10.00;77.90;;;;;;5098372;27;20101;-48
2020/12/06 05:16:26;;;;;;;3.53;2.65;;;10.00;77.90;;;;;;5125564;27;20059;-48
2020/12/06 05:18:53;;;;;;;4.32;2.65;;;10.00;77.90;;;;;;5082455;27;20040;-47
2020/12/06 05:21:19;;;;;;;3.83;2.80;;;10.00;77.90;;;;;;5125660;27;20031;-48
2020/12/06 05:23:46;;;;;;;3.17;2.58;;;10.00;77.90;;;;;;5126493;27;20020;-48
2020/12/06 05:26:12;;;;;;;2.80;2.40;;;10.00;77.90;;;;;;5118113;27;20035;-48
2020/12/06 05:28:38;;;;;;;3.10;2.53;;;10.00;78.00;;;;;;5102436;27;20107;-48
2020/12/06 05:31:04;;;;;;;2.85;2.60;;;9.90;77.90;;;;;;5109344;27;20092;-49
2020/12/06 05:33:31;;;;;;;2.85;2.40;;;9.90;78.00;;;;;;5121636;27;20545;-48
2020/12/06 05:36:00;;;;;;;3.00;2.70;;;9.90;78.00;;;;;;5128144;27;20028;-49
2020/12/06 05:38:26;;;;;;;3.08;2.35;;;9.90;78.00;;;;;;5123771;28;20492;-48
2020/12/06 05:40:56;;;;;;;3.10;2.47;;;9.90;78.00;;;;;;5122880;28;20099;-48
2020/12/06 05:43:27;;;;;;;2.72;2.38;;;9.90;78.00;;;;;;5122834;28;20036;-47
2020/12/06 05:46:16;;;;;;;2.65;2.35;;;9.90;78.00;;;;;;5105167;28;20062;-48
2020/12/06 05:48:43;;;;;;;2.75;2.42;;;9.90;78.00;;;;;;5123321;28;20038;-48
2020/12/06 05:51:10;;;;;;;3.20;2.70;;;9.90;78.00;;;;;;5122962;28;20047;-48
2020/12/06 05:53:36;;;;;;;4.30;3.00;;;9.80;77.90;;;;;;5104780;28;20675;-48
2020/12/06 05:56:13;;;;;;;3.22;2.45;;;9.80;77.90;;;;;;5104992;28;20031;-48
2020/12/06 05:58:44;;;;;;;3.80;2.78;;;9.80;77.90;;;;;;5122984;28;20035;-48
2020/12/06 06:01:13;;;;;;;3.33;2.50;;;9.80;78.00;;;;;;5122987;28;20185;-48
2020/12/06 06:03:53;;;;;;;2.95;2.65;;;9.80;78.00;;;;;;5122778;28;20047;-49
2020/12/06 06:06:42;;;;;;;3.08;2.60;;;9.80;78.00;;;;;;5122376;28;20035;-48
2020/12/06 06:09:09;;;;;;;3.33;2.80;;;9.80;78.00;;;;;;5123059;28;20024;-47
2020/12/06 06:11:35;;;;;;;3.40;3.10;;;9.80;78.10;;;;;;5121687;28;20027;-47
2020/12/06 06:14:03;;;;;;;3.78;2.60;;;9.70;77.90;;;;;;5121393;28;20030;-47
2020/12/06 06:16:31;;;;;;;3.20;2.63;;;9.70;78.00;;;;;;5106576;28;20083;-47
2020/12/06 06:18:59;;;;;;;3.90;2.72;;;9.70;78.00;;;;;;5102153;28;20088;-47
2020/12/06 06:21:32;;;;;;;3.33;2.70;;;9.70;78.00;;;;;;5102463;28;20103;-47
2020/12/06 06:24:01;;;;;;;3.10;2.70;;;9.70;78.00;;;;;;5084823;28;20027;-48
2020/12/06 06:26:29;;;;;;;3.78;2.55;;;9.70;78.00;;;;;;5102257;28;20031;-48
2020/12/06 06:28:55;;;;;;;2.83;2.35;;;9.70;78.00;;;;;;5067790;28;20044;-47
2020/12/06 06:31:22;;;;;;;3.78;2.78;;;9.70;78.10;;;;;;5102316;28;20028;-47
2020/12/06 06:33:49;;;;;;;3.07;2.57;;;9.70;78.10;;;;;;5102386;28;20035;-47
2020/12/06 06:36:15;;;;;;;3.28;2.80;;;9.70;78.10;;;;;;5100573;28;20032;-47
2020/12/06 06:38:44;;;;;;;2.83;2.40;;;9.60;78.10;;;;;;5063945;28;20040;-47
2020/12/06 06:41:11;;;;;;;3.28;2.72;;;9.60;78.10;;;;;;5082269;28;20024;-47
2020/12/06 06:43:38;;;;;;;3.20;2.75;;;9.60;78.10;;;;;;5085580;28;20028;-48
2020/12/06 06:46:09;;;;;;;3.40;2.85;;;9.60;78.10;;;;;;5083797;28;20039;-47
2020/12/06 06:48:36;;;;;;;3.45;2.78;;;9.60;78.10;;;;;;5102261;28;20028;-47
2020/12/06 06:51:03;;;;;;;3.88;2.83;;;9.60;78.10;;;;;;5083405;28;20059;-48
2020/12/06 06:53:29;;;;;;;3.63;2.78;;;9.60;78.10;;;;;;5105459;28;20044;-47
2020/12/06 06:55:55;;;;;;;4.60;3.05;;;9.60;78.20;;;;;;5106038;28;20028;-48
2020/12/06 06:58:26;;;;;;;3.20;2.58;;;9.60;78.10;;;;;;5106238;28;20032;-47
2020/12/06 07:01:15;;;;;;;4.07;3.00;;;9.60;78.20;;;;;;5088150;28;20040;-47
2020/12/06 07:03:45;;;;;;;3.53;2.92;;;9.50;78.30;;;;;;5106308;28;20388;-47
2020/12/06 07:06:11;;;;;;;3.38;2.83;;;9.50;78.20;;;;;;5105239;28;20028;-48
2020/12/06 07:08:39;;;;;;;3.95;2.97;;;9.50;78.20;;;;;;5105910;28;20027;-47
2020/12/06 07:11:06;;;;;;;6.18;3.28;;;9.50;78.20;;;;;;5105476;28;20024;-48
2020/12/06 07:13:32;;;;;;;3.83;2.90;;;9.50;78.20;;;;;;5105823;28;20024;-47
2020/12/06 07:15:58;;;;;;;3.72;3.13;;;9.50;78.20;;;;;;5105576;28;20626;-47
2020/12/06 07:18:25;;;;;;;3.20;2.90;;;9.50;78.20;;;;;;5105539;28;20072;-48
2020/12/06 07:20:51;;;;;;;3.55;2.88;;;9.50;78.20;;;;;;5105679;28;20036;-47
2020/12/06 07:23:17;;;;;;;4.47;3.10;;;9.50;78.20;;;;;;5105359;28;20024;-47
2020/12/06 07:25:43;;;;;;;4.22;2.95;;;9.40;78.10;;;;;;5105577;28;20036;-48
2020/12/06 07:28:09;;;;;;;3.65;2.80;;;9.40;78.20;;;;;;5070936;28;20083;-47
2020/12/06 07:30:36;;;;;;;3.05;2.75;;;9.40;78.10;;;;;;5105499;28;20028;-47
2020/12/06 07:33:02;;;;;;;4.10;3.20;;;9.40;78.20;;;;;;5105202;28;20028;-48
2020/12/06 07:35:28;;;;;;;3.25;2.90;;;9.40;78.20;;;;;;5105429;28;20089;-48
2020/12/06 07:37:56;;;;;;;3.57;3.20;;;9.40;78.20;;;;;;5089908;28;20029;-48
2020/12/06 07:40:22;;;;;;;4.50;3.13;;;9.40;78.30;;;;;;5066953;28;20751;-47
2020/12/06 07:42:48;;;;;;;4.28;3.22;;;9.40;78.30;;;;;;5084761;28;20050;-48
2020/12/06 07:45:15;;;;;;;3.28;2.70;;;9.30;78.30;;;;;;5084807;28;20035;-47
2020/12/06 07:47:41;;;;;;;3.63;2.78;;;9.30;78.30;;;;;;5084893;28;20024;-47
2020/12/06 07:50:07;;;;;;;4.20;3.05;;;9.30;78.30;;;;;;5097082;28;20066;-47
2020/12/06 07:52:37;;;;;;;3.50;3.00;;;9.30;78.40;;;;;;5104683;28;20091;-48
2020/12/06 07:55:05;;;;;;;3.30;3.00;;;9.30;78.40;;;;;;5104866;28;20032;-48
2020/12/06 07:57:40;;;;;;;3.78;3.05;;;9.30;78.40;;;;;;5104881;28;20020;-47
2020/12/06 08:00:11;;;;;;;3.75;3.25;;;9.30;78.30;;;;;;5104413;28;20104;-47
2020/12/06 08:02:38;;;;;;;3.80;3.40;;;9.30;78.40;;;;;;5104173;28;20099;-47
2020/12/06 08:05:05;;;;;;;4.03;3.15;;;9.30;78.40;;;;;;5070005;28;20024;-48
2020/12/06 08:07:37;;;;;;;4.70;2.80;;;9.30;78.40;;;;;;5080544;28;20059;-47
2020/12/06 08:10:03;;;;;;;3.55;3.22;;;9.30;78.30;;;;;;5095882;28;20307;-48
2020/12/06 08:12:31;;;;;;;4.13;3.72;;;9.20;78.30;;;;;;5093513;28;20076;-48
2020/12/06 08:15:00;;;;;;;;;;;9.20;78.40;;;;;;5102222;27;20042;-48
2020/12/06 08:17:26;;;;;;;3.28;2.88;;;9.20;78.40;;;;;;5104379;27;19943;-49
2020/12/06 08:19:53;;;;;;;4.30;3.40;;;9.20;78.40;;;;;;5099447;27;20051;-47
2020/12/06 08:22:19;;;;;;;4.28;3.13;;;9.20;78.40;;;;;;5129592;27;20068;-47
2020/12/06 08:24:45;;;;;;;3.35;3.00;;;9.20;78.40;;;;;;5105427;27;20031;-48
2020/12/06 08:27:20;;;;;;;5.35;3.15;;;9.20;78.40;;;;;;5127475;27;20030;-47
2020/12/06 08:29:47;;;;;;;2.97;2.65;;;9.20;78.50;;;;;;5128850;27;20031;-47
2020/12/06 08:32:13;;;;;;;4.28;3.35;;;9.20;78.40;;;;;;5118084;27;20016;-47
2020/12/06 08:34:52;;;;;;;3.33;2.85;;;9.20;78.50;;;;;;5104246;27;20031;-47
2020/12/06 08:37:19;;;;;;;4.43;3.42;;;9.10;78.40;;;;;;5104667;28;20043;-49
2020/12/06 08:39:45;;;;;;;2.65;2.28;;;9.10;78.50;;;;;;5102884;28;20453;-47
2020/12/06 08:42:19;;;;;;;2.35;2.15;;;9.10;78.50;;;;;;5104285;28;20032;-48
2020/12/06 08:44:57;;;;;;;3.15;2.58;;;9.10;78.50;;;;;;5104059;28;20054;-47
2020/12/06 08:47:25;;;;;;;3.75;3.20;;;9.10;78.50;;;;;;5103981;28;20044;-48
2020/12/06 08:50:04;;;;;;;;;;;9.10;78.50;;;;;;5115654;27;20103;-47
2020/12/06 08:52:30;;;;;;;3.33;3.03;;;9.10;78.60;;;;;;5124157;28;19904;-47
2020/12/06 08:54:58;;;;;;;3.20;2.90;;;9.00;78.40;;;;;;5134673;27;20027;-47
2020/12/06 08:57:26;;;;;;;5.30;3.05;;;9.00;78.50;;;;;;5144741;27;20538;-47
2020/12/06 08:59:52;;;;;;;3.60;2.80;;;9.00;78.50;;;;;;5144359;27;20031;-48
2020/12/06 09:02:23;;;;;;;3.22;2.85;;;9.00;78.40;;;;;;5144746;27;20040;-47
2020/12/06 09:04:50;;;;;;;3.78;3.00;;;9.00;78.50;;;;;;5144317;27;20048;-47
2020/12/06 09:07:16;;;;;;;4.63;3.22;;;9.00;78.50;;;;;;5133811;27;20024;-47
2020/12/06 09:09:42;;;;;;;3.30;3.00;;;9.00;78.50;;;;;;5124032;28;20140;-48
2020/12/06 09:12:09;;;;;;;4.72;3.47;;;9.00;78.50;;;;;;5123966;28;20031;-48
2020/12/06 09:14:36;;;;;;;3.33;2.88;;;9.00;78.50;;;;;;5122539;28;20091;-48
2020/12/06 09:17:03;;;;;;;5.15;3.40;;;9.00;78.60;;;;;;5123841;28;20036;-47
2020/12/06 09:19:29;;;;;;;5.50;3.38;;;9.00;78.60;;;;;;5123791;28;20054;-48
2020/12/06 09:21:55;;;;;;;3.75;3.10;;;9.00;78.60;;;;;;5123448;28;20092;-47
2020/12/06 09:24:21;;;;;;;3.92;2.95;;;9.00;78.60;;;;;;5128942;27;20035;-49
2020/12/06 09:26:47;;;;;;;3.83;3.22;;;8.90;78.60;;;;;;5144045;27;20506;-47
2020/12/06 09:29:13;;;;;;;4.03;3.20;;;8.90;78.50;;;;;;5144097;27;20098;-48
2020/12/06 09:31:40;;;;;;;4.60;3.22;;;8.90;78.60;;;;;;5144258;27;20026;-47
2020/12/06 09:34:06;;;;;;;5.13;3.88;;;8.90;78.60;;;;;;5143748;27;20055;-47
2020/12/06 09:36:32;;;;;;;4.55;3.60;;;8.90;78.70;;;;;;5140130;27;20034;-47
2020/12/06 09:38:58;;;;;;;4.30;3.33;;;8.90;78.60;;;;;;5143937;27;20023;-47
2020/12/06 09:41:24;;;;;;;3.92;3.20;;;8.90;78.60;;;;;;5127177;27;20048;-47
2020/12/06 09:43:50;;;;;;;3.58;3.10;;;8.90;78.70;;;;;;5123081;28;20027;-47
2020/12/06 09:46:17;;;;;;;4.88;3.38;;;8.90;78.70;;;;;;5123049;28;20024;-47
2020/12/06 09:48:43;;;;;;;3.97;3.38;;;8.90;78.60;;;;;;5123729;28;20015;-47
2020/12/06 09:51:09;;;;;;;3.40;3.10;;;8.80;78.70;;;;;;5125049;27;20049;-48
2020/12/06 09:53:35;;;;;;;3.65;3.22;;;8.80;79.40;;;;;;5143392;27;20056;-48
2020/12/06 09:56:02;;;;;;;4.10;3.28;;;8.90;78.70;;;;;;5123796;27;20016;-48
2020/12/06 09:58:28;;;;;;;3.58;2.88;;;8.80;79.40;;;;;;5122915;28;20853;-48
2020/12/06 10:00:54;;;;;;;4.32;3.42;;;8.80;78.70;;;;;;5123140;28;20038;-48
2020/12/06 10:03:20;;;;;;;5.53;3.53;;;8.80;78.70;;;;;;5123080;28;20020;-48
2020/12/06 10:05:46;;;;;;;4.05;3.40;;;8.80;78.70;;;;;;5122468;28;20024;-48
2020/12/06 10:08:12;;;;;;;3.40;2.78;;;8.80;78.70;;;;;;5134639;27;20020;-49
2020/12/06 10:10:38;;;;;;;4.22;3.22;;;8.80;78.80;;;;;;5143490;27;20023;-48
2020/12/06 10:13:05;;;;;;;3.85;3.33;;;8.80;78.80;;;;;;5143357;28;20051;-48
2020/12/06 10:15:31;;;;;;;3.60;3.08;;;8.80;78.80;;;;;;5143237;28;20047;-47
2020/12/06 10:17:57;;;;;;;4.45;3.42;;;8.70;78.70;;;;;;5143464;28;20371;-48
2020/12/06 10:20:23;;;;;;;4.38;3.58;;;8.70;78.70;;;;;;5143292;28;20035;-47
2020/12/06 10:22:49;;;;;;;4.22;3.17;;;8.70;78.70;;;;;;5141352;28;20106;-48
2020/12/06 10:25:15;;;;;;;3.65;3.08;;;8.80;78.80;;;;;;5129716;28;20027;-47
2020/12/06 10:27:42;;;;;;;4.80;3.50;;;8.70;78.70;;;;;;5126457;28;20031;-52
2020/12/06 10:30:08;;;;;;;4.20;3.38;;;8.70;78.70;;;;;;5126996;28;20036;-48
2020/12/06 10:32:34;;;;;;;3.42;3.13;;;8.70;78.70;;;;;;5126888;28;20023;-48
2020/12/06 10:35:00;;;;;;;4.10;3.42;;;8.70;78.80;;;;;;5126482;28;20023;-47
2020/12/06 10:37:26;;;;;;;4.60;3.40;;;8.70;78.80;;;;;;5115221;28;20048;-47
2020/12/06 10:39:53;;;;;;;4.32;3.15;;;8.70;78.80;;;;;;5106332;28;20050;-47
2020/12/06 10:42:19;;;;;;;4.05;3.25;;;8.60;78.80;;;;;;5123683;27;20031;-47
2020/12/06 10:44:45;;;;;;;4.10;3.15;;;8.60;78.80;;;;;;5126307;28;20091;-47
2020/12/06 10:47:11;;;;;;;4.25;3.25;;;8.60;78.80;;;;;;5126614;28;20094;-47
2020/12/06 10:49:40;;;;;;;4.00;3.30;;;8.60;78.80;;;;;;5134949;27;20047;-48
2020/12/06 10:52:10;;;;;;;3.97;3.28;;;8.60;78.80;;;;;;5147174;27;20019;-48
2020/12/06 10:54:36;;;;;;;4.93;2.95;;;8.60;78.80;;;;;;5120852;28;20036;-47
2020/12/06 10:57:02;;;;;;;3.78;3.00;;;8.60;78.80;;;;;;5108145;28;20027;-49
2020/12/06 10:59:28;;;;;;;4.55;3.30;;;8.60;78.90;;;;;;5126493;28;20035;-47
2020/12/06 11:01:56;;;;;;;4.07;3.22;;;8.60;78.80;;;;;;5126365;28;20480;-47
2020/12/06 11:04:22;;;;;;;5.68;3.45;;;8.60;78.90;;;;;;5125972;28;20042;-48
2020/12/06 11:06:48;;;;;;;5.35;3.22;;;8.60;78.90;;;;;;5128776;27;20521;-48
2020/12/06 11:09:15;;;;;;;4.45;3.50;;;8.60;78.90;;;;;;5125782;27;20027;-48
2020/12/06 11:11:41;;;;;;;3.95;3.22;;;8.50;78.90;;;;;;5133607;27;20038;-47
2020/12/06 11:14:07;;;;;;;4.05;3.50;;;8.50;78.90;;;;;;5132395;27;20035;-48
2020/12/06 11:16:33;;;;;;;4.38;3.88;;;8.50;78.90;;;;;;5129198;27;20078;-48
2020/12/06 11:18:59;;;;;;;4.30;3.35;;;8.50;78.90;;;;;;5127257;27;20047;-47
2020/12/06 11:21:25;;;;;;;4.15;3.28;;;8.50;78.90;;;;;;5129586;27;20028;-48
2020/12/06 11:23:54;;;;;;;4.68;3.35;;;8.50;78.90;;;;;;5131281;27;20048;-48
2020/12/06 11:26:21;;;;;;;3.60;3.20;;;8.50;79.00;;;;;;5124723;27;20027;-47
2020/12/06 11:28:47;;;;;;;5.32;3.47;;;8.50;78.90;;;;;;5111851;27;20451;-47
2020/12/06 11:31:14;;;;;;;5.38;3.65;;;8.50;78.90;;;;;;5130859;27;20731;-48
2020/12/06 11:33:40;;;;;;;3.72;3.08;;;8.50;78.90;;;;;;5125121;27;20022;-48
2020/12/06 11:36:07;;;;;;;3.83;3.10;;;8.40;78.90;;;;;;5126530;27;20768;-47
2020/12/06 11:38:33;;;;;;;3.95;3.38;;;8.40;78.90;;;;;;5123479;27;20074;-47
2020/12/06 11:41:00;;;;;;;4.18;3.47;;;8.40;78.90;;;;;;5125695;28;20726;-48
2020/12/06 11:43:26;;;;;;;3.97;3.20;;;8.40;79.00;;;;;;5125692;28;20028;-47
2020/12/06 11:45:52;;;;;;;4.38;3.53;;;8.40;79.00;;;;;;5107148;28;20035;-47
2020/12/06 11:48:18;;;;;;;3.95;3.53;;;8.40;79.00;;;;;;5125573;28;20040;-48
2020/12/06 11:50:45;;;;;;;4.68;3.33;;;8.40;79.00;;;;;;5141938;27;20019;-48
2020/12/06 11:53:11;;;;;;;3.72;3.20;;;8.40;78.90;;;;;;5107253;28;20032;-47
2020/12/06 11:55:38;;;;;;;3.65;3.05;;;8.40;79.00;;;;;;5108718;28;20113;-48
2020/12/06 11:58:04;;;;;;;3.85;3.28;;;8.40;79.00;;;;;;5104885;28;20040;-48
2020/12/06 12:00:30;;;;;;;3.88;3.38;;;8.30;78.90;;;;;;5104898;28;20036;-49
2020/12/06 12:02:56;;;;;;;5.03;3.58;;;8.30;78.90;;;;;;5135571;27;20023;-47
2020/12/06 12:05:22;;;;;;;5.18;3.13;;;8.30;78.90;;;;;;5145538;27;20409;-47
2020/12/06 12:07:48;;;;;;;3.88;3.17;;;8.30;78.90;;;;;;5133375;27;20072;-48
2020/12/06 12:10:16;;;;;;;4.75;3.15;;;8.30;79.00;;;;;;5118557;27;20068;-47
2020/12/06 12:12:42;;;;;;;4.82;3.30;;;8.30;79.00;;;;;;5127518;27;20027;-47
2020/12/06 12:15:09;;;;;;;3.92;3.08;;;8.30;79.00;;;;;;5140764;27;20028;-47
2020/12/06 12:17:35;;;;;;;4.05;3.05;;;8.20;78.90;;;;;;5127149;27;20042;-47
2020/12/06 12:20:02;;;;;;;3.90;3.33;;;8.30;79.00;;;;;;5122086;27;20072;-47
2020/12/06 12:22:28;;;;;;;4.60;3.72;;;8.30;79.00;;;;;;5119659;27;20027;-48
2020/12/06 12:24:54;;;;;;;4.95;3.55;;;8.30;79.00;;;;;;5124359;27;20055;-52
2020/12/06 12:27:20;;;;;;;3.83;3.22;;;8.20;79.00;;;;;;5127835;27;20047;-49
2020/12/06 12:29:46;;;;;;;5.30;3.67;;;8.20;79.00;;;;;;5128210;27;20036;-47
2020/12/06 12:32:13;;;;;;;4.03;3.40;;;8.20;79.00;;;;;;5117359;27;20024;-51
2020/12/06 12:34:39;;;;;;;3.88;3.33;;;8.20;79.00;;;;;;5123756;27;20027;-47
2020/12/06 12:37:05;;;;;;;4.28;3.58;;;8.20;79.00;;;;;;5117575;27;20024;-48
2020/12/06 12:39:31;;;;;;;4.15;3.58;;;8.20;79.10;;;;;;5104672;28;20044;-47
2020/12/06 12:41:59;;;;;;;4.30;3.47;;;8.20;79.10;;;;;;5123698;28;20019;-47
2020/12/06 12:44:27;;;;;;;4.72;3.38;;;8.20;79.10;;;;;;5124309;28;20055;-47
2020/12/06 12:46:57;;;;;;;4.43;3.38;;;8.10;79.00;;;;;;5123979;28;20091;-47
2020/12/06 12:49:24;;;;;;;4.35;3.55;;;8.10;79.00;;;;;;5129629;28;20109;-47
2020/12/06 12:51:54;;;;;;;5.18;3.45;;;8.20;79.10;;;;;;5138731;27;20020;-47
2020/12/06 12:54:21;;;;;;;4.25;3.25;;;8.10;79.00;;;;;;5124138;28;20035;-47